.
WxDataArchive / Data Records for 2011-11-28
2011-11-27 November 2011 2011-11-29

Data Records for Monday, 28 November 2011

Time	Temp	Chill	HIndex	Humid	Dewpt	 Wind 	HiWind	WindDir	Rain 	Barom 
-----	----	-----	------	-----	-----	------	------	-------	-----	----- 
00:00	37.3	37.3	37.3	93	35.5	0	1	45	0.00	30.049 
00:05	37.3	37.3	37.3	93	35.5	0	1	45	0.00	30.049 
00:10	37.3	37.3	37.3	93	35.5	0	2	45	0.00	30.049 
00:15	37.3	37.3	37.3	93	35.5	0	2	292	0.00	30.037 
00:20	37.3	37.3	37.3	93	35.5	0	2	292	0.00	30.037 
00:25	37.3	37.3	37.3	93	35.5	0	3	292	0.00	30.037 
00:30	37.2	37.2	37.2	93	35.4	0	1	292	0.00	30.027 
00:35	37.2	37.2	37.2	93	35.4	0	3	292	0.00	30.027 
00:40	37.2	37.2	37.2	93	35.4	0	3	112	0.00	30.027 
00:45	37.0	37.0	37.0	93	35.2	0	2	0	0.00	30.052 
00:50	37.0	37.0	37.0	93	35.2	0	2	0	0.00	30.052 
00:55	36.9	36.9	36.9	93	35.1	0	2	0	0.00	30.052 
01:00	36.9	36.9	36.9	93	35.1	0	3	0	0.00	30.052 
01:05	36.9	36.9	36.9	93	35.1	0	2	315	0.00	30.052 
01:10	36.9	36.9	36.9	93	35.1	0	1	315	0.00	30.052 
01:15	36.9	36.9	36.9	93	35.1	0	2	315	0.00	30.058 
01:20	36.9	36.9	36.9	93	35.1	0	1	315	0.00	30.058 
01:25	36.8	36.8	36.8	93	35.0	0	2	315	0.00	30.058 
01:30	36.8	36.8	36.8	93	35.0	0	2	315	0.00	30.056 
01:35	36.8	36.8	36.8	93	35.0	0	2	315	0.00	30.056 
01:40	36.6	36.6	36.6	93	34.8	0	3	315	0.01	30.056 
01:45	36.5	36.5	36.5	92	34.4	0	2	338	0.00	30.057 
01:50	36.3	36.3	36.3	92	34.2	0	2	338	0.01	30.057 
01:55	36.2	36.2	36.2	92	34.1	0	3	338	0.00	30.057 
02:00	36.2	36.2	36.2	92	34.1	0	2	338	0.01	30.053 
02:05	36.0	36.0	36.0	92	33.9	0	1	0	0.00	30.053 
02:10	36.0	36.0	36.0	92	33.9	0	2	0	0.00	30.053 
02:15	36.0	36.0	36.0	92	33.9	0	2	0	0.00	30.066 
02:20	35.9	35.9	35.9	93	34.1	0	1	0	0.01	30.066 
02:25	36.0	36.0	36.0	93	34.2	0	2	0	0.00	30.066 
02:30	36.0	36.0	36.0	93	34.2	0	2	0	0.00	30.064 
02:35	36.0	36.0	36.0	93	34.2	0	1	0	0.00	30.064 
02:40	36.0	36.0	36.0	93	34.2	0	2	0	0.00	30.064 
02:45	36.0	36.0	36.0	93	34.2	0	1	0	0.00	30.054 
02:50	36.0	36.0	36.0	93	34.2	0	2	0	0.00	30.054 
02:55	36.0	36.0	36.0	93	34.2	0	1	0	0.00	30.054 
03:00	36.0	36.0	36.0	93	34.2	0	2	0	0.00	30.055 
03:05	36.0	36.0	36.0	93	34.2	0	2	112	0.00	30.055 
03:10	36.2	36.2	36.2	93	34.4	0	1	112	0.00	30.055 
03:15	36.2	36.2	36.2	93	34.4	0	2	112	0.00	30.066 
03:20	36.2	36.2	36.2	93	34.4	0	2	112	0.00	30.066 
03:25	36.3	36.3	36.3	93	34.5	0	2	68	0.00	30.066 
03:30	36.3	36.3	36.3	93	34.5	0	2	292	0.00	30.070 
03:35	36.3	36.3	36.3	93	34.5	0	2	22	0.00	30.070 
03:40	36.3	36.3	36.3	93	34.5	0	3	0	0.00	30.070 
03:45	36.3	36.3	36.3	93	34.5	0	2	0	0.00	30.070 
03:50	36.3	36.3	36.3	93	34.5	0	3	135	0.00	30.070 
03:55	36.3	36.3	36.3	93	34.5	0	4	112	0.00	30.070 
04:00	36.3	36.3	36.3	93	34.5	0	2	112	0.00	30.058 
04:05	36.3	36.3	36.3	92	34.2	0	3	68	0.00	30.058 
04:10	36.2	36.2	36.2	92	34.1	0	2	68	0.00	30.058 
04:15	36.2	36.2	36.2	92	34.1	0	3	338	0.00	30.071 
04:20	36.2	36.2	36.2	92	34.1	0	4	338	0.00	30.071 
04:25	36.2	36.2	36.2	92	34.1	1	3	22	0.00	30.071 
04:30	36.2	36.2	36.2	92	34.1	0	3	270	0.00	30.086 
04:35	36.0	36.0	36.0	92	33.9	0	2	270	0.00	30.086 
04:40	36.0	36.0	36.0	92	33.9	1	3	22	0.00	30.086 
04:45	36.0	36.0	36.0	92	33.9	0	2	338	0.00	30.076 
04:50	36.0	36.0	36.0	91	33.6	0	2	0	0.00	30.076 
04:55	35.9	35.9	35.9	91	33.5	1	4	338	0.00	30.076 
05:00	35.9	35.9	35.9	91	33.5	0	3	338	0.00	30.086 
05:05	35.9	35.9	35.9	91	33.5	0	3	90	0.00	30.086 
05:10	35.9	35.9	35.9	91	33.5	0	3	158	0.00	30.086 
05:15	35.9	35.9	35.9	90	33.3	0	2	0	0.00	30.089 
05:20	35.9	35.9	35.9	90	33.3	1	3	135	0.00	30.089 
05:25	35.9	35.9	35.9	90	33.3	1	4	112	0.00	30.089 
05:30	35.9	35.9	35.9	89	33.0	1	4	135	0.00	30.074 
05:35	35.9	35.9	35.9	89	33.0	0	3	292	0.00	30.074 
05:40	35.9	35.9	35.9	89	33.0	1	5	45	0.00	30.074 
05:45	35.9	35.9	35.9	89	33.0	1	6	90	0.00	30.078 
05:50	35.9	35.9	35.9	88	32.7	2	5	90	0.00	30.078 
05:55	35.9	35.9	35.9	88	32.7	1	6	112	0.00	30.078 
06:00	35.9	35.9	35.9	88	32.7	1	5	22	0.00	30.067 
06:05	35.8	35.8	35.8	88	32.6	2	5	112	0.00	30.067 
06:10	35.8	35.8	35.8	88	32.6	1	3	90	0.00	30.067 
06:15	35.8	35.8	35.8	88	32.6	1	3	90	0.00	30.077 
06:20	35.8	35.8	35.8	88	32.6	1	5	112	0.00	30.077 
06:25	35.8	35.8	35.8	88	32.6	1	4	90	0.00	30.077 
06:30	35.6	35.6	35.6	88	32.4	2	6	90	0.00	30.071 
06:35	35.6	35.6	35.6	88	32.4	1	4	135	0.00	30.071 
06:40	35.6	35.6	35.6	88	32.4	1	3	135	0.00	30.071 
06:45	35.6	35.6	35.6	88	32.4	1	6	90	0.00	30.079 
06:50	35.8	35.8	35.8	88	32.6	1	4	0	0.00	30.079 
06:55	35.8	35.8	35.8	88	32.6	1	4	45	0.00	30.079 
07:00	35.8	35.8	35.8	88	32.6	1	4	45	0.00	30.088 
07:05	35.8	35.8	35.8	88	32.6	1	5	45	0.00	30.088 
07:10	35.8	35.8	35.8	88	32.6	1	3	68	0.00	30.088 
07:15	35.8	35.8	35.8	88	32.6	1	5	90	0.00	30.092 
07:20	35.8	35.8	35.8	88	32.6	0	2	90	0.00	30.092 
07:25	35.8	35.8	35.8	88	32.6	1	3	90	0.00	30.092 
07:30	35.8	35.8	35.8	88	32.6	1	6	45	0.00	30.075 
07:35	35.5	35.5	35.5	88	32.3	2	7	112	0.00	30.075 
07:40	35.3	35.3	35.3	87	31.8	1	9	338	0.00	30.075 
07:45	35.3	35.3	35.3	86	31.5	1	5	112	0.00	30.076 
07:50	35.3	35.3	35.3	86	31.5	1	4	90	0.00	30.076 
07:55	35.3	35.3	35.3	86	31.5	1	5	45	0.00	30.076 
08:00	35.3	35.3	35.3	86	31.5	1	4	45	0.00	30.090 
08:05	35.3	35.3	35.3	86	31.5	1	4	112	0.00	30.090 
08:10	35.3	35.3	35.3	86	31.5	1	6	68	0.00	30.090 
08:15	35.3	35.3	35.3	86	31.5	2	9	112	0.00	30.096 
08:20	35.3	35.3	35.3	86	31.5	1	6	112	0.00	30.096 
08:25	35.5	35.5	35.5	86	31.7	1	5	90	0.00	30.096 
08:30	35.5	35.5	35.5	86	31.7	1	6	112	0.00	30.094 
08:35	35.5	35.5	35.5	86	31.7	1	4	112	0.00	30.094 
08:40	35.5	35.5	35.5	86	31.7	1	5	135	0.00	30.094 
08:45	35.5	35.5	35.5	86	31.7	1	5	22	0.00	30.087 
08:50	35.5	35.5	35.5	86	31.7	2	7	112	0.00	30.087 
08:55	35.5	35.5	35.5	85	31.4	2	7	112	0.00	30.087 
09:00	35.5	35.5	35.5	86	31.7	1	5	112	0.00	30.096 
09:05	35.6	35.6	35.6	86	31.8	1	5	68	0.00	30.096 
09:10	35.8	35.8	35.8	86	32.0	1	6	135	0.00	30.096 
09:15	35.9	35.9	35.9	86	32.1	1	4	68	0.00	30.093 
09:20	36.0	36.0	36.0	86	32.2	1	4	45	0.01	30.093 
09:25	36.0	36.0	36.0	86	32.2	1	4	45	0.00	30.093 
09:30	36.0	36.0	36.0	85	31.9	2	7	90	0.00	30.092 
09:35	36.2	36.2	36.2	85	32.1	2	7	112	0.00	30.092 
09:40	36.3	36.3	36.3	85	32.2	2	5	112	0.00	30.092 
09:45	36.5	36.5	36.5	85	32.4	2	6	45	0.00	30.077 
09:50	36.6	36.6	36.6	84	32.2	3	9	112	0.00	30.077 
09:55	36.8	36.8	36.8	84	32.4	1	5	112	0.00	30.077 
10:00	36.9	36.9	36.9	84	32.5	1	5	112	0.00	30.097 
10:05	36.8	36.8	36.8	83	32.1	3	9	112	0.00	30.097 
10:10	36.9	36.9	36.9	84	32.5	1	4	112	0.00	30.097 
10:15	37.2	37.2	37.2	84	32.8	1	4	112	0.00	30.097 
10:20	37.2	37.2	37.2	83	32.5	1	6	112	0.00	30.097 
10:25	37.0	37.0	37.0	82	32.0	2	6	112	0.00	30.097 
10:30	37.0	37.0	37.0	82	32.0	3	9	90	0.00	30.080 
10:35	37.3	37.3	37.3	82	32.3	2	7	112	0.00	30.080 
10:40	37.5	37.5	37.5	81	32.2	1	6	112	0.00	30.080 
10:45	37.6	37.6	37.6	81	32.3	2	8	90	0.00	30.087 
10:50	37.8	37.8	37.8	79	31.9	2	7	112	0.00	30.087 
10:55	37.9	34.9	37.9	80	32.3	4	10	90	0.00	30.087 
11:00	38.2	38.2	38.2	80	32.6	1	5	90	0.00	30.086 
11:05	38.3	38.3	38.3	79	32.4	1	5	90	0.00	30.086 
11:10	38.3	38.3	38.3	79	32.4	2	9	112	0.00	30.086 
11:15	38.3	38.3	38.3	79	32.4	2	6	112	0.00	30.075 
11:20	38.5	38.5	38.5	81	33.2	0	2	45	0.00	30.075 
11:25	38.8	38.8	38.8	80	33.2	1	5	90	0.00	30.075 
11:30	38.8	38.8	38.8	81	33.5	2	6	112	0.00	30.074 
11:35	38.8	38.8	38.8	80	33.2	2	5	112	0.00	30.074 
11:40	38.8	38.8	38.8	81	33.5	1	6	68	0.00	30.074 
11:45	38.8	38.8	38.8	80	33.2	1	5	90	0.00	30.060 
11:50	38.9	38.9	38.9	80	33.3	1	4	112	0.00	30.060 
11:55	39.1	39.1	39.1	80	33.5	2	7	112	0.00	30.060 
12:00	39.1	39.1	39.1	81	33.8	1	4	112	0.00	30.042 
12:05	39.2	39.2	39.2	81	33.9	1	6	45	0.00	30.042 
12:10	39.1	39.1	39.1	80	33.5	2	9	112	0.00	30.042 
12:15	39.1	39.1	39.1	80	33.5	1	6	0	0.00	30.034 
12:20	39.2	39.2	39.2	80	33.6	2	7	112	0.00	30.034 
12:25	39.3	39.3	39.3	81	34.0	1	5	112	0.00	30.034 
12:30	39.3	39.3	39.3	81	34.0	2	7	90	0.00	30.031 
12:35	39.3	39.3	39.3	81	34.0	2	7	112	0.00	30.031 
12:40	39.3	39.3	39.3	81	34.0	2	7	90	0.00	30.031 
12:45	39.5	39.5	39.5	81	34.2	2	8	135	0.00	30.025 
12:50	39.8	39.8	39.8	81	34.5	2	6	112	0.00	30.025 
12:55	39.8	39.8	39.8	80	34.1	2	9	112	0.00	30.025 
13:00	39.9	39.9	39.9	80	34.2	1	4	112	0.00	30.014 
13:05	40.2	40.2	40.2	81	34.8	1	3	112	0.00	30.014 
13:10	40.2	40.2	40.2	80	34.5	2	8	90	0.00	30.014 
13:15	40.1	40.1	40.1	80	34.4	3	10	112	0.00	30.015 
13:20	39.9	39.9	39.9	81	34.6	1	7	112	0.00	30.015 
13:25	39.9	39.9	39.9	81	34.6	2	7	112	0.00	30.015 
13:30	39.8	39.8	39.8	81	34.5	2	4	68	0.00	30.002 
13:35	39.8	39.8	39.8	81	34.5	1	6	45	0.00	30.002 
13:40	39.8	39.8	39.8	81	34.5	2	9	90	0.00	30.002 
13:45	39.6	39.6	39.6	81	34.3	3	10	112	0.00	29.995 
13:50	39.6	39.6	39.6	81	34.3	2	10	112	0.00	29.995 
13:55	39.6	39.6	39.6	81	34.3	2	6	90	0.00	29.995 
14:00	39.8	39.8	39.8	81	34.5	1	7	22	0.00	29.990 
14:05	39.8	39.8	39.8	81	34.5	2	6	22	0.00	29.990 
14:10	39.8	39.8	39.8	81	34.5	2	5	90	0.00	29.990 
14:15	39.8	39.8	39.8	82	34.8	2	6	90	0.00	29.985 
14:20	39.8	39.8	39.8	82	34.8	1	5	112	0.00	29.985 
14:25	39.8	39.8	39.8	82	34.8	1	7	112	0.00	29.985 
14:30	39.8	39.8	39.8	82	34.8	0	2	112	0.00	29.988 
14:35	39.8	39.8	39.8	83	35.1	0	3	112	0.00	29.988 
14:40	39.8	39.8	39.8	82	34.8	1	3	0	0.00	29.988 
14:45	39.8	39.8	39.8	83	35.1	1	3	135	0.00	29.985 
14:50	39.8	39.8	39.8	83	35.1	0	1	135	0.00	29.985 
14:55	39.8	39.8	39.8	83	35.1	1	3	90	0.00	29.985 
15:00	39.6	39.6	39.6	83	34.9	2	7	112	0.00	29.984 
15:05	39.6	39.6	39.6	83	34.9	1	4	112	0.00	29.984 
15:10	39.6	39.6	39.6	83	34.9	1	6	45	0.00	29.984 
15:15	39.6	39.6	39.6	83	34.9	2	6	112	0.00	29.980 
15:20	39.6	39.6	39.6	83	34.9	1	4	112	0.00	29.980 
15:25	39.6	39.6	39.6	83	34.9	1	7	22	0.00	29.980 
15:30	39.6	39.6	39.6	83	34.9	1	5	90	0.00	29.978 
15:35	39.6	39.6	39.6	83	34.9	1	3	90	0.00	29.978 
15:40	39.6	39.6	39.6	83	34.9	1	6	90	0.00	29.978 
15:45	39.6	39.6	39.6	83	34.9	0	3	22	0.00	29.970 
15:50	39.6	39.6	39.6	83	34.9	1	7	135	0.00	29.970 
15:55	39.6	39.6	39.6	83	34.9	1	4	90	0.00	29.970 
16:00	39.6	39.6	39.6	83	34.9	1	3	90	0.00	29.978 
16:05	39.6	39.6	39.6	83	34.9	2	6	90	0.00	29.978 
16:10	39.6	39.6	39.6	83	34.9	1	3	68	0.00	29.978 
16:15	39.5	39.5	39.5	84	35.1	1	4	112	0.00	29.970 
16:20	39.5	39.5	39.5	84	35.1	1	4	135	0.00	29.970 
16:25	39.5	39.5	39.5	84	35.1	1	5	135	0.00	29.970 
16:30	39.5	39.5	39.5	85	35.4	1	5	90	0.00	29.981 
16:35	39.5	39.5	39.5	85	35.4	1	3	90	0.00	29.981 
16:40	39.3	39.3	39.3	86	35.5	1	4	45	0.00	29.981 
16:45	39.3	39.3	39.3	86	35.5	1	3	90	0.00	29.992 
16:50	39.3	39.3	39.3	87	35.8	1	3	68	0.00	29.992 
16:55	39.3	39.3	39.3	87	35.8	0	2	68	0.00	29.992 
17:00	39.3	39.3	39.3	88	36.0	0	2	45	0.01	29.988 
17:05	39.2	39.2	39.2	88	35.9	1	4	112	0.00	29.988 
17:10	39.2	39.2	39.2	88	35.9	1	4	315	0.00	29.988 
17:15	39.2	39.2	39.2	88	35.9	2	5	90	0.00	29.969 
17:20	39.1	39.1	39.1	89	36.1	1	3	90	0.00	29.969 
17:25	39.1	39.1	39.1	89	36.1	1	5	135	0.00	29.969 
17:30	39.1	39.1	39.1	89	36.1	1	3	112	0.01	29.972 
17:35	39.1	39.1	39.1	90	36.4	1	3	112	0.00	29.972 
17:40	38.9	38.9	38.9	90	36.2	1	4	112	0.00	29.972 
17:45	39.1	39.1	39.1	90	36.4	1	4	90	0.00	29.974 
17:50	39.1	39.1	39.1	90	36.4	1	4	90	0.00	29.974 
17:55	38.9	38.9	38.9	90	36.2	1	6	90	0.00	29.974 
18:00	38.9	38.9	38.9	90	36.2	1	4	90	0.00	29.967 
18:05	39.1	39.1	39.1	91	36.7	2	5	112	0.00	29.967 
18:10	39.1	39.1	39.1	91	36.7	2	6	90	0.00	29.967 
18:15	39.1	39.1	39.1	91	36.7	2	7	90	0.00	29.963 
18:20	38.9	38.9	38.9	91	36.5	2	7	45	0.00	29.963 
18:25	38.9	38.9	38.9	91	36.5	2	6	112	0.00	29.963 
18:30	38.9	38.9	38.9	91	36.5	2	5	90	0.00	29.960 
18:35	38.9	38.9	38.9	91	36.5	1	6	45	0.00	29.960 
18:40	38.9	38.9	38.9	91	36.5	2	5	45	0.00	29.960 
18:45	38.9	38.9	38.9	91	36.5	2	5	135	0.00	29.949 
18:50	38.9	38.9	38.9	91	36.5	2	7	112	0.00	29.949 
18:55	38.9	38.9	38.9	91	36.5	3	9	90	0.00	29.949 
19:00	38.9	38.9	38.9	91	36.5	2	6	90	0.00	29.935 
19:05	38.9	38.9	38.9	91	36.5	2	9	112	0.00	29.935 
19:10	38.9	38.9	38.9	91	36.5	2	7	112	0.00	29.935 
19:15	38.9	38.9	38.9	91	36.5	1	6	0	0.00	29.927 
19:20	38.9	38.9	38.9	91	36.5	2	4	68	0.00	29.927 
19:25	38.9	38.9	38.9	91	36.5	2	9	90	0.00	29.927 
19:30	38.9	38.9	38.9	91	36.5	2	6	112	0.00	29.921 
19:35	38.9	38.9	38.9	92	36.8	1	4	90	0.00	29.921 
19:40	39.1	39.1	39.1	92	37.0	2	6	90	0.01	29.921 
19:45	38.9	38.9	38.9	92	36.8	1	5	90	0.00	29.937 
19:50	38.9	38.9	38.9	92	36.8	1	6	45	0.00	29.937 
19:55	38.8	38.8	38.8	92	36.7	2	4	90	0.00	29.937 
20:00	38.8	38.8	38.8	92	36.7	1	6	45	0.00	29.928 
20:05	38.6	38.6	38.6	92	36.5	2	6	112	0.00	29.928 
20:10	38.6	38.6	38.6	92	36.5	2	4	90	0.01	29.928 
20:15	38.6	38.6	38.6	92	36.5	1	5	45	0.00	29.934 
20:20	38.5	38.5	38.5	92	36.4	1	5	90	0.00	29.934 
20:25	38.5	38.5	38.5	92	36.4	1	3	90	0.00	29.934 
20:30	38.5	38.5	38.5	92	36.4	1	4	112	0.00	29.940 
20:35	38.5	38.5	38.5	92	36.4	1	5	22	0.00	29.940 
20:40	38.5	38.5	38.5	92	36.4	1	6	158	0.00	29.940 
20:45	38.5	38.5	38.5	93	36.7	1	5	112	0.00	29.945 
20:50	38.5	38.5	38.5	93	36.7	1	6	90	0.01	29.945 
20:55	38.5	38.5	38.5	93	36.7	1	5	22	0.00	29.945 
21:00	38.5	38.5	38.5	93	36.7	1	4	112	0.00	29.942 
21:05	38.5	38.5	38.5	93	36.7	1	5	112	0.01	29.942 
21:10	38.5	38.5	38.5	93	36.7	1	3	135	0.02	29.942 
21:15	38.5	38.5	38.5	93	36.7	2	5	45	0.01	29.933 
21:20	38.3	38.3	38.3	93	36.5	1	6	112	0.01	29.933 
21:25	38.3	38.3	38.3	93	36.5	1	5	45	0.01	29.933 
21:30	38.2	38.2	38.2	93	36.4	2	5	68	0.01	29.908 
21:35	38.2	38.2	38.2	93	36.4	2	7	112	0.00	29.908 
21:40	38.2	38.2	38.2	93	36.4	3	7	90	0.01	29.908 
21:45	38.2	38.2	38.2	93	36.4	1	5	90	0.00	29.896 
21:50	38.2	38.2	38.2	93	36.4	2	6	68	0.00	29.896 
21:55	38.2	38.2	38.2	93	36.4	2	7	112	0.00	29.896 
22:00	38.2	38.2	38.2	94	36.6	1	5	90	0.01	29.898 
22:05	38.2	38.2	38.2	94	36.6	2	9	112	0.00	29.898 
22:10	38.2	38.2	38.2	94	36.6	2	7	112	0.00	29.898 
22:15	38.2	38.2	38.2	94	36.6	2	5	90	0.00	29.896 
22:20	38.2	38.2	38.2	94	36.6	2	9	90	0.00	29.896 
22:25	38.2	38.2	38.2	93	36.4	2	8	112	0.00	29.896 
22:30	38.3	38.3	38.3	93	36.5	2	6	135	0.00	29.879 
22:35	38.3	38.3	38.3	94	36.7	2	6	68	0.00	29.879 
22:40	38.3	38.3	38.3	93	36.5	2	5	112	0.00	29.879 
22:45	38.3	38.3	38.3	93	36.5	1	9	112	0.01	29.883 
22:50	38.3	38.3	38.3	93	36.5	2	8	90	0.00	29.883 
22:55	38.5	38.5	38.5	93	36.7	2	6	112	0.01	29.883 
23:00	38.3	38.3	38.3	93	36.5	2	10	68	0.01	29.875 
23:05	38.3	38.3	38.3	93	36.5	1	5	90	0.00	29.875 
23:10	38.5	38.5	38.5	93	36.7	1	5	90	0.01	29.875 
23:15	38.5	38.5	38.5	93	36.7	1	4	90	0.00	29.866 
23:20	38.5	38.5	38.5	93	36.7	2	5	22	0.01	29.866 
23:25	38.5	38.5	38.5	94	36.9	1	5	112	0.01	29.866 
23:30	38.5	38.5	38.5	94	36.9	1	5	135	0.00	29.862 
23:35	38.5	38.5	38.5	94	36.9	2	9	22	0.01	29.862 
23:40	38.5	38.5	38.5	94	36.9	2	6	112	0.01	29.862 
23:45	38.5	38.5	38.5	94	36.9	2	4	90	0.01	29.867 
23:50	38.5	38.5	38.5	94	36.9	1	6	45	0.02	29.867 
23:55	38.5	38.5	38.5	94	36.9	1	3	112	0.01	29.867 

CoCoRaHS
IN-AL-39
A2 Web Hosting
Creative Commons License
GoDaddy
search engine by freefind advanced

loaded 2018-11-18 11:07:51 • last modified 2010-11-18 10:43:29
Privacy PolicyDisclaimer
• wx.awcolley.com is powered by PmWiki v.2002016 •
• all content (unless otherwise noted) © 2018 A W Colley